createdAt,value
2018-10-18T00:00:51.241Z,1012.26
2018-10-18T00:01:51.225Z,1012.28
2018-10-18T00:02:51.226Z,1012.32
2018-10-18T00:03:51.189Z,1012.31
2018-10-18T00:04:51.179Z,1012.32
2018-10-18T00:05:51.180Z,1012.32
2018-10-18T00:06:51.165Z,1012.31
2018-10-18T00:07:51.146Z,1012.31
2018-10-18T00:08:51.156Z,1012.32
2018-10-18T00:09:51.122Z,1012.30
2018-10-18T00:10:51.116Z,1012.32
2018-10-18T00:11:51.101Z,1012.30
2018-10-18T00:12:51.089Z,1012.31
2018-10-18T00:13:51.093Z,1012.32
2018-10-18T00:14:51.072Z,1012.30
2018-10-18T00:15:51.057Z,1012.29
2018-10-18T00:16:51.044Z,1012.25
2018-10-18T00:17:51.033Z,1012.26
2018-10-18T00:18:51.033Z,1012.24
2018-10-18T00:19:51.009Z,1012.25
2018-10-18T00:20:50.993Z,1012.24
2018-10-18T00:21:50.985Z,1012.26
2018-10-18T00:22:50.973Z,1012.22
2018-10-18T00:23:50.982Z,1012.21
2018-10-18T00:24:50.951Z,1012.27
2018-10-18T00:25:50.943Z,1012.29
2018-10-18T00:26:50.944Z,1012.29
2018-10-18T00:27:50.919Z,1012.27
2018-10-18T00:28:50.918Z,1012.29
2018-10-18T00:29:50.913Z,1012.29
2018-10-18T00:30:50.886Z,1012.27
2018-10-18T00:31:50.870Z,1012.34
2018-10-18T00:32:50.866Z,1012.29
2018-10-18T00:33:50.858Z,1012.33
2018-10-18T00:34:50.836Z,1012.35
2018-10-18T00:35:50.827Z,1012.34
2018-10-18T00:36:50.820Z,1012.34
2018-10-18T00:37:50.804Z,1012.36
2018-10-18T00:38:50.822Z,1012.33
2018-10-18T00:39:50.780Z,1012.36
2018-10-18T00:40:50.767Z,1012.34
2018-10-18T00:41:50.764Z,1012.36
2018-10-18T00:42:50.760Z,1012.34
2018-10-18T00:43:50.740Z,1012.37
2018-10-18T00:44:50.759Z,1012.34
2018-10-18T00:45:50.720Z,1012.39
2018-10-18T00:46:50.708Z,1012.41
2018-10-18T00:47:50.690Z,1012.38
2018-10-18T00:48:50.680Z,1012.39
2018-10-18T00:49:50.684Z,1012.38
2018-10-18T00:50:50.662Z,1012.40
2018-10-18T00:51:50.645Z,1012.43
2018-10-18T00:52:50.654Z,1012.46
2018-10-18T00:53:50.627Z,1012.45
2018-10-18T00:54:50.630Z,1012.47
2018-10-18T00:55:50.602Z,1012.50
2018-10-18T00:56:50.591Z,1012.50
2018-10-18T00:57:50.594Z,1012.51
2018-10-18T00:58:50.576Z,1012.52
2018-10-18T00:59:50.568Z,1012.54
2018-10-18T01:00:50.543Z,1012.54
2018-10-18T01:01:50.534Z,1012.55
2018-10-18T01:02:50.524Z,1012.56
2018-10-18T01:03:50.514Z,1012.58
2018-10-18T01:04:50.517Z,1012.57
2018-10-18T01:05:50.504Z,1012.56
2018-10-18T01:06:50.480Z,1012.58
2018-10-18T01:07:50.466Z,1012.59
2018-10-18T01:08:50.455Z,1012.58
2018-10-18T01:09:50.461Z,1012.60
2018-10-18T01:10:50.439Z,1012.58
2018-10-18T01:11:50.435Z,1012.63
2018-10-18T01:12:50.430Z,1012.61
2018-10-18T01:13:50.405Z,1012.60
2018-10-18T01:14:50.417Z,1012.65
2018-10-18T01:15:50.402Z,1012.62
2018-10-18T01:16:50.368Z,1012.64
2018-10-18T01:17:50.358Z,1012.65
2018-10-18T01:18:50.350Z,1012.66
2018-10-18T01:19:50.338Z,1012.67
2018-10-18T01:20:50.335Z,1012.68
2018-10-18T01:21:50.321Z,1012.68
2018-10-18T01:22:50.299Z,1012.66
2018-10-18T01:23:50.292Z,1012.67
2018-10-18T01:24:50.280Z,1012.65
2018-10-18T01:25:50.287Z,1012.72
2018-10-18T01:26:50.257Z,1012.67
2018-10-18T01:27:50.247Z,1012.71
2018-10-18T01:28:50.250Z,1012.72
2018-10-18T01:29:50.222Z,1012.69
2018-10-18T01:30:50.220Z,1012.71
2018-10-18T01:31:50.198Z,1012.71
2018-10-18T01:32:50.208Z,1012.73
2018-10-18T01:33:50.210Z,1012.69
2018-10-18T01:34:50.169Z,1012.76
2018-10-18T01:35:50.166Z,1012.74
2018-10-18T01:36:50.144Z,1012.72
2018-10-18T01:37:50.137Z,1012.73
2018-10-18T01:38:50.143Z,1012.79
2018-10-18T01:39:50.120Z,1012.82
2018-10-18T01:40:50.113Z,1012.80
2018-10-18T01:41:50.090Z,1012.87
2018-10-18T01:42:50.078Z,1012.84
2018-10-18T01:43:50.069Z,1012.83
2018-10-18T01:44:50.057Z,1012.86
2018-10-18T01:45:50.063Z,1012.89
2018-10-18T01:46:50.045Z,1012.83
2018-10-18T01:47:50.023Z,1012.89
2018-10-18T01:48:50.012Z,1012.86
2018-10-18T01:49:50.001Z,1012.89
2018-10-18T01:50:50.018Z,1012.86
2018-10-18T01:51:50.003Z,1012.84
2018-10-18T01:52:49.977Z,1012.86
2018-10-18T01:53:49.959Z,1012.83
2018-10-18T01:54:49.951Z,1012.91
2018-10-18T01:55:49.934Z,1012.90
2018-10-18T01:56:49.938Z,1012.92
2018-10-18T01:57:49.915Z,1012.92
2018-10-18T01:58:49.902Z,1012.94
2018-10-18T01:59:49.915Z,1012.94
2018-10-18T02:00:49.890Z,1012.93
2018-10-18T02:01:49.901Z,1012.92
2018-10-18T02:02:49.859Z,1012.93
2018-10-18T02:03:49.872Z,1012.92
2018-10-18T02:04:49.846Z,1012.93
2018-10-18T02:05:49.827Z,1012.92
2018-10-18T02:06:49.833Z,1012.91
2018-10-18T02:07:49.808Z,1012.94
2018-10-18T02:08:49.794Z,1012.94
2018-10-18T02:09:49.788Z,1012.95
2018-10-18T02:10:49.770Z,1012.97
2018-10-18T02:11:49.771Z,1012.97
2018-10-18T02:12:49.760Z,1012.97
2018-10-18T02:13:49.907Z,1012.95
2018-10-18T02:14:49.745Z,1012.94
2018-10-18T02:15:49.720Z,1012.96
2018-10-18T02:16:49.714Z,1012.99
2018-10-18T02:17:49.718Z,1012.99
2018-10-18T02:18:49.697Z,1013.00
2018-10-18T02:19:49.669Z,1013.01
2018-10-18T02:20:49.658Z,1013.00
2018-10-18T02:21:49.658Z,1012.99
2018-10-18T02:22:49.652Z,1013.02
2018-10-18T02:23:49.627Z,1013.06
2018-10-18T02:24:49.651Z,1013.04
2018-10-18T02:25:49.607Z,1013.08
2018-10-18T02:26:49.612Z,1013.06
2018-10-18T02:27:49.583Z,1013.09
2018-10-18T02:28:49.577Z,1013.08
2018-10-18T02:29:49.567Z,1013.05
2018-10-18T02:30:49.551Z,1013.03
2018-10-18T02:31:49.679Z,1013.06
2018-10-18T02:32:49.529Z,1013.05
2018-10-18T02:33:49.518Z,1013.09
2018-10-18T02:34:49.513Z,1013.07
2018-10-18T02:35:49.493Z,1013.04
2018-10-18T02:36:49.484Z,1013.10
2018-10-18T02:37:49.528Z,1013.03
2018-10-18T02:38:49.461Z,1013.04
2018-10-18T02:39:49.450Z,1013.04
2018-10-18T02:40:49.438Z,1013.07
2018-10-18T02:41:49.428Z,1013.08
2018-10-18T02:42:49.435Z,1013.05
2018-10-18T02:43:49.405Z,1013.12
2018-10-18T02:44:49.393Z,1013.12
2018-10-18T02:45:49.382Z,1013.12
2018-10-18T02:46:49.374Z,1013.13
2018-10-18T02:47:49.391Z,1013.15
2018-10-18T02:48:49.353Z,1013.16
2018-10-18T02:49:49.338Z,1013.12
2018-10-18T02:50:49.326Z,1013.15
2018-10-18T02:51:49.318Z,1013.11
2018-10-18T02:52:49.317Z,1013.08
2018-10-18T02:53:49.293Z,1013.08
2018-10-18T02:54:49.283Z,1013.07
2018-10-18T02:55:49.271Z,1013.07
2018-10-18T02:56:49.260Z,1013.06
2018-10-18T02:57:49.260Z,1013.06
2018-10-18T02:58:49.258Z,1013.08
2018-10-18T02:59:49.228Z,1013.12
2018-10-18T03:00:49.219Z,1013.10
2018-10-18T03:01:49.207Z,1013.10
2018-10-18T03:02:49.212Z,1013.12
2018-10-18T03:03:49.185Z,1013.10
2018-10-18T03:04:49.182Z,1013.11
2018-10-18T03:05:49.162Z,1013.18
2018-10-18T03:06:49.157Z,1013.14
2018-10-18T03:07:49.151Z,1013.13
2018-10-18T03:08:49.133Z,1013.15
2018-10-18T03:09:49.123Z,1013.13
2018-10-18T03:10:49.134Z,1013.18
2018-10-18T03:11:49.105Z,1013.15
2018-10-18T03:12:49.098Z,1013.13
2018-10-18T03:13:49.076Z,1013.19
2018-10-18T03:14:49.065Z,1013.17
2018-10-18T03:15:49.129Z,1013.21
2018-10-18T03:16:49.045Z,1013.21
2018-10-18T03:17:49.069Z,1013.23
2018-10-18T03:18:49.023Z,1013.24
2018-10-18T03:19:49.055Z,1013.23
2018-10-18T03:20:49.002Z,1013.23
2018-10-18T03:21:48.991Z,1013.20
2018-10-18T03:22:48.984Z,1013.25
2018-10-18T03:23:49.006Z,1013.26
2018-10-18T03:24:48.960Z,1013.28
2018-10-18T03:25:48.950Z,1013.26
2018-10-18T03:26:48.939Z,1013.25
2018-10-18T03:27:48.930Z,1013.24
2018-10-18T03:28:48.930Z,1013.27
2018-10-18T03:29:48.904Z,1013.29
2018-10-18T03:30:48.896Z,1013.26
2018-10-18T03:31:48.889Z,1013.30
2018-10-18T03:32:48.872Z,1013.26
2018-10-18T03:33:48.879Z,1013.28
2018-10-18T03:34:48.875Z,1013.26
2018-10-18T03:35:48.840Z,1013.24
2018-10-18T03:36:48.829Z,1013.26
2018-10-18T03:37:48.818Z,1013.21
2018-10-18T03:38:48.819Z,1013.23
2018-10-18T03:39:48.802Z,1013.24
2018-10-18T03:40:48.825Z,1013.21
2018-10-18T03:41:48.782Z,1013.23
2018-10-18T03:42:48.764Z,1013.26
2018-10-18T03:43:48.795Z,1013.25
2018-10-18T03:44:48.748Z,1013.28
2018-10-18T03:45:48.739Z,1013.28
2018-10-18T03:46:48.728Z,1013.30
2018-10-18T03:47:48.714Z,1013.27
2018-10-18T03:48:48.713Z,1013.28
2018-10-18T03:49:48.687Z,1013.27
2018-10-18T03:50:48.685Z,1013.23
2018-10-18T03:51:48.666Z,1013.28
2018-10-18T03:52:48.668Z,1013.26
2018-10-18T03:53:48.671Z,1013.28
2018-10-18T03:54:48.632Z,1013.25
2018-10-18T03:55:48.641Z,1013.27
2018-10-18T03:56:48.638Z,1013.30
2018-10-18T03:57:48.614Z,1013.33
2018-10-18T03:58:48.591Z,1013.33
2018-10-18T03:59:48.692Z,1013.32
2018-10-18T04:00:48.575Z,1013.28
2018-10-18T04:01:48.562Z,1013.31
2018-10-18T04:02:48.545Z,1013.31
2018-10-18T04:03:48.534Z,1013.30
2018-10-18T04:04:48.534Z,1013.32
2018-10-18T04:05:48.529Z,1013.32
2018-10-18T04:06:48.503Z,1013.33
2018-10-18T04:07:48.493Z,1013.35
2018-10-18T04:08:48.480Z,1013.30
2018-10-18T04:09:48.487Z,1013.34
2018-10-18T04:10:48.461Z,1013.33
2018-10-18T04:11:48.448Z,1013.35
2018-10-18T04:12:48.556Z,1013.33
2018-10-18T04:13:48.434Z,1013.35
2018-10-18T04:14:48.423Z,1013.35
2018-10-18T04:15:48.538Z,1013.39
2018-10-18T04:16:48.398Z,1013.38
2018-10-18T04:17:48.403Z,1013.39
2018-10-18T04:18:48.369Z,1013.38
2018-10-18T04:19:48.386Z,1013.45
2018-10-18T04:20:48.345Z,1013.44
2018-10-18T04:21:48.339Z,1013.41
2018-10-18T04:22:48.323Z,1013.45
2018-10-18T04:23:48.318Z,1013.45
2018-10-18T04:24:48.327Z,1013.44
2018-10-18T04:25:48.290Z,1013.50
2018-10-18T04:26:48.311Z,1013.44
2018-10-18T04:27:48.277Z,1013.45
2018-10-18T04:28:48.264Z,1013.48
2018-10-18T04:29:48.251Z,1013.51
2018-10-18T04:30:48.244Z,1013.50
2018-10-18T04:31:48.223Z,1013.45
2018-10-18T04:32:48.223Z,1013.51
2018-10-18T04:33:48.201Z,1013.57
2018-10-18T04:34:48.192Z,1013.52
2018-10-18T04:35:48.189Z,1013.51
2018-10-18T04:36:48.192Z,1013.60
2018-10-18T04:37:48.161Z,1013.63
2018-10-18T04:38:48.146Z,1013.63
2018-10-18T04:39:48.134Z,1013.67
2018-10-18T04:40:48.144Z,1013.66
2018-10-18T04:41:48.113Z,1013.74
2018-10-18T04:42:48.118Z,1013.66
2018-10-18T04:43:48.108Z,1013.66
2018-10-18T04:44:48.080Z,1013.61
2018-10-18T04:45:48.096Z,1013.63
2018-10-18T04:46:48.062Z,1013.60
2018-10-18T04:47:48.259Z,1013.61
2018-10-18T04:48:48.149Z,1013.61
2018-10-18T04:49:48.023Z,1013.63
2018-10-18T04:50:48.013Z,1013.60
2018-10-18T04:51:48.031Z,1013.59
2018-10-18T04:52:47.993Z,1013.62
2018-10-18T04:53:47.981Z,1013.59
2018-10-18T04:54:47.970Z,1013.56
2018-10-18T04:55:47.971Z,1013.64
2018-10-18T04:56:47.979Z,1013.62
2018-10-18T04:57:47.938Z,1013.62
2018-10-18T04:58:47.927Z,1013.64
2018-10-18T04:59:47.938Z,1013.64
2018-10-18T05:00:47.905Z,1013.67
2018-10-18T05:01:47.912Z,1013.68
2018-10-18T05:02:48.028Z,1013.69
2018-10-18T05:03:47.873Z,1013.71
2018-10-18T05:04:47.871Z,1013.73
2018-10-18T05:05:47.864Z,1013.71
2018-10-18T05:06:47.855Z,1013.71
2018-10-18T05:07:47.837Z,1013.70
2018-10-18T05:08:47.821Z,1013.70
2018-10-18T05:09:47.809Z,1013.68
2018-10-18T05:10:47.798Z,1013.67
2018-10-18T05:11:47.807Z,1013.69
2018-10-18T05:12:47.833Z,1013.70
2018-10-18T05:13:47.769Z,1013.74
2018-10-18T05:14:47.754Z,1013.70
2018-10-18T05:15:47.773Z,1013.74
2018-10-18T05:16:47.751Z,1013.71
2018-10-18T05:17:47.769Z,1013.70
2018-10-18T05:18:47.725Z,1013.69
2018-10-18T05:19:47.702Z,1013.70
2018-10-18T05:20:47.698Z,1013.73
2018-10-18T05:21:47.698Z,1013.72
2018-10-18T05:22:47.670Z,1013.70
2018-10-18T05:23:47.682Z,1013.66
2018-10-18T05:24:47.686Z,1013.68
2018-10-18T05:25:47.694Z,1013.75
2018-10-18T05:26:47.643Z,1013.71
2018-10-18T05:27:47.612Z,1013.72
2018-10-18T05:28:47.610Z,1013.71
2018-10-18T05:29:47.592Z,1013.76
2018-10-18T05:30:47.580Z,1013.77
2018-10-18T05:31:47.697Z,1013.80
2018-10-18T05:32:47.558Z,1013.85
2018-10-18T05:33:47.549Z,1013.83
2018-10-18T05:34:47.553Z,1013.87
2018-10-18T05:35:47.530Z,1013.85
2018-10-18T05:36:47.525Z,1013.84
2018-10-18T05:37:47.598Z,1013.89
2018-10-18T05:38:47.499Z,1013.88
2018-10-18T05:39:47.483Z,1013.84
2018-10-18T05:40:47.521Z,1013.87
2018-10-18T05:41:47.507Z,1013.87
2018-10-18T05:42:47.449Z,1013.87
2018-10-18T05:43:47.455Z,1013.91
2018-10-18T05:44:47.430Z,1013.92
2018-10-18T05:45:47.424Z,1013.93
2018-10-18T05:46:47.471Z,1013.93
2018-10-18T05:47:47.441Z,1013.92
2018-10-18T05:48:47.389Z,1013.90
2018-10-18T05:49:47.376Z,1013.95
2018-10-18T05:50:47.384Z,1013.97
2018-10-18T05:51:47.373Z,1013.95
2018-10-18T05:52:47.357Z,1014.01
2018-10-18T05:53:47.474Z,1013.97
2018-10-18T05:54:47.395Z,1013.99
2018-10-18T05:55:47.323Z,1013.99
2018-10-18T05:56:47.301Z,1014.00
2018-10-18T05:57:47.326Z,1014.00
2018-10-18T05:58:47.290Z,1014.03
2018-10-18T05:59:47.332Z,1013.99
2018-10-18T06:00:47.266Z,1014.05
2018-10-18T06:01:47.269Z,1014.06
2018-10-18T06:02:47.268Z,1014.04
2018-10-18T06:03:47.227Z,1014.00
2018-10-18T06:04:47.214Z,1014.03
2018-10-18T06:05:47.214Z,1013.98
2018-10-18T06:06:47.200Z,1013.96
2018-10-18T06:07:47.198Z,1014.00
2018-10-18T06:08:47.268Z,1013.99
2018-10-18T06:09:47.241Z,1014.04
2018-10-18T06:10:47.207Z,1014.00
2018-10-18T06:11:47.139Z,1013.99
2018-10-18T06:12:47.139Z,1014.01
2018-10-18T06:13:47.122Z,1014.00
2018-10-18T06:14:47.128Z,1014.01
2018-10-18T06:15:47.098Z,1013.99
2018-10-18T06:16:47.085Z,1013.96
2018-10-18T06:17:47.098Z,1013.99
2018-10-18T06:18:47.066Z,1013.95
2018-10-18T06:19:47.051Z,1013.96
2018-10-18T06:20:47.041Z,1013.95
2018-10-18T06:21:47.031Z,1013.95
2018-10-18T06:22:47.191Z,1013.98
2018-10-18T06:23:47.009Z,1013.96
2018-10-18T06:24:47.017Z,1013.98
2018-10-18T06:25:46.990Z,1014.01
2018-10-18T06:26:46.976Z,1014.00
2018-10-18T06:27:46.973Z,1014.00
2018-10-18T06:28:46.972Z,1014.00
2018-10-18T06:29:46.944Z,1014.01
2018-10-18T06:30:46.938Z,1013.98
2018-10-18T06:31:46.929Z,1013.97
2018-10-18T06:32:46.912Z,1014.03
2018-10-18T06:33:46.914Z,1014.01
2018-10-18T06:34:46.937Z,1014.02
2018-10-18T06:35:46.884Z,1014.06
2018-10-18T06:36:46.867Z,1014.13
2018-10-18T06:37:46.862Z,1014.11
2018-10-18T06:38:46.863Z,1014.10
2018-10-18T06:39:46.870Z,1014.12
2018-10-18T06:40:46.824Z,1014.13
2018-10-18T06:41:47.049Z,1014.15
2018-10-18T06:42:46.802Z,1014.18
2018-10-18T06:43:46.839Z,1014.14
2018-10-18T06:44:46.827Z,1014.17
2018-10-18T06:45:46.769Z,1014.17
2018-10-18T06:46:46.773Z,1014.16
2018-10-18T06:47:46.979Z,1014.19
2018-10-18T06:48:46.807Z,1014.19
2018-10-18T06:49:46.725Z,1014.19
2018-10-18T06:50:46.715Z,1014.18
2018-10-18T06:51:46.703Z,1014.17
2018-10-18T06:52:46.701Z,1014.20
2018-10-18T06:53:46.699Z,1014.11
2018-10-18T06:54:46.672Z,1014.12
2018-10-18T06:55:46.680Z,1014.14
2018-10-18T06:56:46.648Z,1014.17
2018-10-18T06:57:46.640Z,1014.13
2018-10-18T06:58:46.663Z,1014.18
2018-10-18T06:59:46.633Z,1014.15
2018-10-18T07:00:46.607Z,1014.15
2018-10-18T07:01:46.613Z,1014.20
2018-10-18T07:02:46.590Z,1014.18
2018-10-18T07:03:46.573Z,1014.22
2018-10-18T07:04:46.574Z,1014.21
2018-10-18T07:05:46.557Z,1014.19
2018-10-18T07:06:46.542Z,1014.21
2018-10-18T07:07:46.532Z,1014.23
2018-10-18T07:08:46.546Z,1014.22
2018-10-18T07:09:46.528Z,1014.22
2018-10-18T07:10:46.532Z,1014.24
2018-10-18T07:11:46.495Z,1014.25
2018-10-18T07:12:46.479Z,1014.30
2018-10-18T07:13:46.470Z,1014.28
2018-10-18T07:14:46.471Z,1014.29
2018-10-18T07:15:46.452Z,1014.32
2018-10-18T07:16:46.435Z,1014.33
2018-10-18T07:17:46.517Z,1014.33
2018-10-18T07:18:46.408Z,1014.36
2018-10-18T07:19:46.409Z,1014.40
2018-10-18T07:20:46.384Z,1014.37
2018-10-18T07:21:46.373Z,1014.37
2018-10-18T07:22:46.374Z,1014.42
2018-10-18T07:23:46.368Z,1014.46
2018-10-18T07:24:46.350Z,1014.45
2018-10-18T07:25:46.327Z,1014.48
2018-10-18T07:26:46.319Z,1014.46
2018-10-18T07:27:46.308Z,1014.45
2018-10-18T07:28:46.309Z,1014.46
2018-10-18T07:29:46.295Z,1014.49
2018-10-18T07:30:46.272Z,1014.50
2018-10-18T07:31:46.299Z,1014.53
2018-10-18T07:32:46.259Z,1014.54
2018-10-18T07:33:46.263Z,1014.55
2018-10-18T07:34:46.282Z,1014.53
2018-10-18T07:35:46.218Z,1014.55
2018-10-18T07:36:46.211Z,1014.59
2018-10-18T07:37:46.210Z,1014.55
2018-10-18T07:38:46.183Z,1014.53
2018-10-18T07:39:46.184Z,1014.59
2018-10-18T07:40:46.161Z,1014.58
2018-10-18T07:41:46.155Z,1014.58
2018-10-18T07:42:46.140Z,1014.58
2018-10-18T07:43:46.157Z,1014.60
2018-10-18T07:44:46.140Z,1014.59
2018-10-18T07:45:46.109Z,1014.58
2018-10-18T07:46:46.213Z,1014.60
2018-10-18T07:47:46.085Z,1014.60
2018-10-18T07:48:46.075Z,1014.60
2018-10-18T07:49:46.113Z,1014.61
2018-10-18T07:50:46.051Z,1014.63
2018-10-18T07:51:46.040Z,1014.68
2018-10-18T07:52:46.031Z,1014.66
2018-10-18T07:53:46.020Z,1014.63
2018-10-18T07:54:46.008Z,1014.70
2018-10-18T07:55:46.011Z,1014.66
2018-10-18T07:56:46.048Z,1014.68
2018-10-18T07:57:45.996Z,1014.65
2018-10-18T07:58:45.966Z,1014.65
2018-10-18T07:59:45.971Z,1014.67
2018-10-18T08:00:46.081Z,1014.66
2018-10-18T08:01:45.966Z,1014.64
2018-10-18T08:02:46.071Z,1014.64
2018-10-18T08:03:45.909Z,1014.66
2018-10-18T08:04:45.923Z,1014.63
2018-10-18T08:05:46.003Z,1014.69
2018-10-18T08:06:45.909Z,1014.69
2018-10-18T08:07:45.873Z,1014.72
2018-10-18T08:08:45.864Z,1014.71
2018-10-18T08:09:45.842Z,1014.72
2018-10-18T08:10:45.845Z,1014.72
2018-10-18T08:11:45.835Z,1014.71
2018-10-18T08:12:45.811Z,1014.72
2018-10-18T08:13:45.796Z,1014.70
2018-10-18T08:14:45.786Z,1014.73
2018-10-18T08:15:45.787Z,1014.70
2018-10-18T08:16:45.789Z,1014.71
2018-10-18T08:17:45.758Z,1014.69
2018-10-18T08:18:45.749Z,1014.71
2018-10-18T08:19:45.752Z,1014.69
2018-10-18T08:20:46.169Z,1014.73
2018-10-18T08:21:45.706Z,1014.77
2018-10-18T08:22:45.716Z,1014.78
2018-10-18T08:23:45.703Z,1014.77
2018-10-18T08:24:45.688Z,1014.81
2018-10-18T08:25:45.677Z,1014.80
2018-10-18T08:26:45.653Z,1014.85
2018-10-18T08:27:45.680Z,1014.84
2018-10-18T08:28:45.632Z,1014.89
2018-10-18T08:29:45.640Z,1014.85
2018-10-18T08:30:45.645Z,1014.87
2018-10-18T08:31:45.642Z,1014.86
2018-10-18T08:32:45.586Z,1014.87
2018-10-18T08:33:45.584Z,1014.89
2018-10-18T08:34:45.567Z,1014.92
2018-10-18T08:35:45.551Z,1014.92
2018-10-18T08:36:45.567Z,1014.91
2018-10-18T08:37:45.684Z,1014.93
2018-10-18T08:38:45.521Z,1014.94
2018-10-18T08:39:45.509Z,1014.91
2018-10-18T08:40:45.516Z,1014.90
2018-10-18T08:41:45.498Z,1014.90
2018-10-18T08:42:45.477Z,1014.92
2018-10-18T08:43:45.500Z,1014.93
2018-10-18T08:44:45.456Z,1014.94
2018-10-18T08:45:45.447Z,1014.92
2018-10-18T08:46:45.470Z,1014.94
2018-10-18T08:47:45.425Z,1014.96
2018-10-18T08:48:45.423Z,1014.97
2018-10-18T08:49:45.424Z,1014.96
2018-10-18T08:50:45.392Z,1014.93
2018-10-18T08:51:45.388Z,1014.96
2018-10-18T08:52:45.411Z,1014.98
2018-10-18T08:53:45.386Z,1014.92
2018-10-18T08:54:45.345Z,1014.99
2018-10-18T08:55:45.339Z,1014.99
2018-10-18T08:56:45.335Z,1014.99
2018-10-18T08:57:45.331Z,1014.97
2018-10-18T08:58:45.302Z,1014.97
2018-10-18T08:59:45.301Z,1014.94
2018-10-18T09:00:45.284Z,1014.96
2018-10-18T09:01:45.571Z,1014.98
2018-10-18T09:02:45.260Z,1014.94
2018-10-18T09:03:45.273Z,1014.92
2018-10-18T09:04:45.238Z,1014.94
2018-10-18T09:05:45.237Z,1014.97
2018-10-18T09:06:45.260Z,1014.95
2018-10-18T09:07:45.207Z,1014.95
2018-10-18T09:08:45.203Z,1014.94
2018-10-18T09:09:45.190Z,1014.96
2018-10-18T09:10:45.178Z,1014.94
2018-10-18T09:11:45.193Z,1014.95
2018-10-18T09:12:45.153Z,1014.89
2018-10-18T09:13:45.140Z,1014.92
2018-10-18T09:14:45.168Z,1014.95
2018-10-18T09:15:45.145Z,1014.92
2018-10-18T09:16:45.148Z,1014.91
2018-10-18T09:17:45.096Z,1014.90
2018-10-18T09:18:45.128Z,1014.93
2018-10-18T09:19:45.078Z,1014.89
2018-10-18T09:20:45.063Z,1014.89
2018-10-18T09:21:45.882Z,1014.91
2018-10-18T09:22:45.054Z,1014.93
2018-10-18T09:23:45.090Z,1014.95
2018-10-18T09:24:45.037Z,1014.91
2018-10-18T09:25:45.020Z,1014.96
2018-10-18T09:26:44.997Z,1014.96
2018-10-18T09:27:45.024Z,1014.92
2018-10-18T09:28:44.995Z,1014.93
2018-10-18T09:29:44.979Z,1014.93
2018-10-18T09:30:44.956Z,1014.98
2018-10-18T09:31:44.943Z,1014.94
2018-10-18T09:32:44.943Z,1014.95
2018-10-18T09:33:44.925Z,1014.98
2018-10-18T09:34:44.908Z,1015.01
2018-10-18T09:35:44.898Z,1014.97
2018-10-18T09:36:44.885Z,1015.00
2018-10-18T09:37:44.889Z,1014.97
2018-10-18T09:38:44.878Z,1014.94
2018-10-18T09:39:44.860Z,1014.97
2018-10-18T09:40:44.838Z,1014.94
2018-10-18T09:41:44.855Z,1014.98
2018-10-18T09:42:44.829Z,1014.95
2018-10-18T09:43:44.813Z,1014.95
2018-10-18T09:44:44.827Z,1014.96
2018-10-18T09:45:44.788Z,1014.94
2018-10-18T09:46:44.772Z,1014.96
2018-10-18T09:47:44.778Z,1014.97
2018-10-18T09:48:44.758Z,1014.99
2018-10-18T09:49:44.740Z,1014.98
2018-10-18T09:50:44.745Z,1015.01
2018-10-18T09:51:44.737Z,1014.99
2018-10-18T09:52:44.725Z,1015.01
2018-10-18T09:53:44.697Z,1015.02
2018-10-18T09:54:44.685Z,1015.04
2018-10-18T09:55:44.762Z,1015.07
2018-10-18T09:56:44.677Z,1015.11
2018-10-18T09:57:44.668Z,1015.11
2018-10-18T09:58:44.682Z,1015.13
2018-10-18T09:59:44.632Z,1015.16
2018-10-18T10:00:44.618Z,1015.10
2018-10-18T10:01:44.630Z,1015.15
2018-10-18T10:02:44.613Z,1015.15
2018-10-18T10:03:44.586Z,1015.12
2018-10-18T10:04:44.578Z,1015.16
2018-10-18T10:05:44.579Z,1015.17
2018-10-18T10:06:44.551Z,1015.17
2018-10-18T10:07:44.578Z,1015.20
2018-10-18T10:08:44.539Z,1015.27
2018-10-18T10:09:44.517Z,1015.31
2018-10-18T10:10:44.510Z,1015.28
2018-10-18T10:11:44.569Z,1015.32
2018-10-18T10:12:44.498Z,1015.28
2018-10-18T10:13:44.548Z,1015.28
2018-10-18T10:14:44.484Z,1015.33
2018-10-18T10:15:44.467Z,1015.32
2018-10-18T10:16:44.444Z,1015.35
2018-10-18T10:17:44.483Z,1015.36
2018-10-18T10:18:44.416Z,1015.32
2018-10-18T10:19:44.406Z,1015.33
2018-10-18T10:20:44.394Z,1015.30
2018-10-18T10:21:44.503Z,1015.36
2018-10-18T10:22:44.466Z,1015.31
2018-10-18T10:23:44.392Z,1015.33
2018-10-18T10:24:44.445Z,1015.34
2018-10-18T10:25:44.352Z,1015.32
2018-10-18T10:26:44.354Z,1015.30
2018-10-18T10:27:44.333Z,1015.31
2018-10-18T10:28:44.336Z,1015.29
2018-10-18T10:29:44.294Z,1015.30
2018-10-18T10:30:44.283Z,1015.30
2018-10-18T10:31:44.285Z,1015.29
2018-10-18T10:32:44.312Z,1015.32
2018-10-18T10:33:44.250Z,1015.26
2018-10-18T10:34:44.257Z,1015.28
2018-10-18T10:35:44.359Z,1015.27
2018-10-18T10:36:44.243Z,1015.27
2018-10-18T10:37:44.247Z,1015.27
2018-10-18T10:38:44.200Z,1015.25
2018-10-18T10:39:44.191Z,1015.22
2018-10-18T10:40:44.170Z,1015.22
2018-10-18T10:41:44.170Z,1015.22
2018-10-18T10:42:44.194Z,1015.19
2018-10-18T10:43:44.144Z,1015.23
2018-10-18T10:44:44.148Z,1015.22
2018-10-18T10:45:44.195Z,1015.22
2018-10-18T10:46:44.108Z,1015.20
2018-10-18T10:47:44.102Z,1015.22
2018-10-18T10:48:44.156Z,1015.23
2018-10-18T10:49:44.078Z,1015.23
2018-10-18T10:50:44.061Z,1015.23
2018-10-18T10:51:44.050Z,1015.24
2018-10-18T10:52:44.041Z,1015.22
2018-10-18T10:53:44.041Z,1015.20
2018-10-18T10:54:44.022Z,1015.19
2018-10-18T10:55:44.028Z,1015.18
2018-10-18T10:56:44.052Z,1015.26
2018-10-18T10:57:43.986Z,1015.16
2018-10-18T10:58:43.991Z,1015.15
2018-10-18T10:59:43.975Z,1015.16
2018-10-18T11:00:43.977Z,1015.15
2018-10-18T11:01:43.951Z,1015.17
2018-10-18T11:02:44.189Z,1015.15
2018-10-18T11:03:43.937Z,1015.13
2018-10-18T11:04:44.018Z,1015.13
2018-10-18T11:05:43.902Z,1015.10
2018-10-18T11:06:43.888Z,1015.09
2018-10-18T11:07:43.884Z,1015.07
2018-10-18T11:08:43.901Z,1015.05
2018-10-18T11:09:43.946Z,1015.07
2018-10-18T11:10:43.872Z,1015.08
2018-10-18T11:11:43.925Z,1015.03
2018-10-18T11:12:43.822Z,1015.04
2018-10-18T11:13:43.844Z,1015.00
2018-10-18T11:14:43.805Z,1014.96
2018-10-18T11:15:43.795Z,1014.98
2018-10-18T11:16:43.795Z,1014.97
2018-10-18T11:17:43.779Z,1014.92
2018-10-18T11:18:43.777Z,1014.94
2018-10-18T11:19:43.764Z,1015.01
2018-10-18T11:20:43.743Z,1015.02
2018-10-18T11:21:43.813Z,1015.00
2018-10-18T11:22:43.714Z,1015.02
2018-10-18T11:23:43.727Z,1014.95
2018-10-18T11:24:43.807Z,1014.97
2018-10-18T11:25:43.682Z,1014.93
2018-10-18T11:26:43.672Z,1014.93
2018-10-18T11:27:43.704Z,1015.00
2018-10-18T11:28:43.676Z,1014.97
2018-10-18T11:29:43.646Z,1014.98
2018-10-18T11:30:43.636Z,1014.98
2018-10-18T11:31:43.613Z,1014.94
2018-10-18T11:32:43.593Z,1014.97
2018-10-18T11:33:43.607Z,1014.92
2018-10-18T11:34:43.884Z,1014.97
2018-10-18T11:35:43.558Z,1014.94
2018-10-18T11:36:43.552Z,1014.96
2018-10-18T11:37:43.579Z,1014.93
2018-10-18T11:38:43.630Z,1014.90
2018-10-18T11:39:43.538Z,1014.91
2018-10-18T11:40:43.520Z,1014.91
2018-10-18T11:41:43.586Z,1014.88
2018-10-18T11:42:43.564Z,1014.86
2018-10-18T11:43:43.469Z,1014.91
2018-10-18T11:44:43.476Z,1014.89
2018-10-18T11:45:43.452Z,1014.94
2018-10-18T11:46:43.493Z,1014.92
2018-10-18T11:47:43.433Z,1014.94
2018-10-18T11:48:43.422Z,1014.93
2018-10-18T11:49:43.420Z,1014.90
2018-10-18T11:50:43.389Z,1014.92
2018-10-18T11:51:43.569Z,1014.93
2018-10-18T11:52:43.398Z,1014.97
2018-10-18T11:53:43.444Z,1014.95
2018-10-18T11:54:43.378Z,1014.96
2018-10-18T11:55:43.333Z,1014.94
2018-10-18T11:56:43.354Z,1014.97
2018-10-18T11:57:43.328Z,1014.96
2018-10-18T11:58:43.302Z,1014.93
2018-10-18T11:59:43.289Z,1014.96
2018-10-18T12:00:43.538Z,1014.93
2018-10-18T12:01:43.267Z,1014.97
2018-10-18T12:02:43.386Z,1014.95
2018-10-18T12:03:43.378Z,1014.95
2018-10-18T12:04:43.232Z,1014.93
2018-10-18T12:05:43.236Z,1014.92